Time;durP1;ratioP1;P1;durP2;ratioP2;P2;SDS_P1;SDS_P2;PMS_P1;PMS_P2;Temp;Humidity;BMP_temperature;BMP_pressure;BME280_temperature;BME280_humidity;BME280_pressure;Samples;Min_cycle;Max_cycle;Signal;HPM_P1;HPM_P2
2022/02/18 00:00:42;;;;;;;0.60;0.47;;;6.50;1.40;;;6.96;100.00;95253.55;647028;216;31505;-73
2022/02/18 00:03:23;;;;;;;4.80;0.87;;;6.60;1.40;;;6.91;100.00;95265.47;646490;216;31585;-73
2022/02/18 00:06:05;;;;;;;3.80;1.00;;;6.60;1.40;;;6.88;100.00;95251.63;618635;222;32010;-73
2022/02/18 00:08:47;;;;;;;2.10;0.80;;;6.40;1.40;;;6.74;100.00;95255.06;645634;216;31558;-73
2022/02/18 00:11:28;;;;;;;2.00;0.85;;;6.20;1.40;;;6.69;100.00;95245.42;641093;217;31522;-74
2022/02/18 00:14:10;;;;;;;0.45;0.45;;;6.30;1.40;;;6.78;100.00;95239.23;645709;216;31510;-73
2022/02/18 00:16:52;;;;;;;6.70;1.03;;;6.30;1.40;;;6.75;100.00;95238.07;649709;216;31620;-72
2022/02/18 00:19:35;;;;;;;0.52;0.32;;;6.20;1.40;;;6.71;100.00;95221.03;649435;216;31503;-73
2022/02/18 00:22:18;;;;;;;0.90;0.50;;;6.20;1.40;;;6.74;100.00;95210.17;647995;212;31524;-73
2022/02/18 00:25:00;;;;;;;5.60;1.20;;;6.20;1.40;;;6.66;100.00;95219.33;644541;212;31516;-73
2022/02/18 00:27:42;;;;;;;5.00;0.80;;;6.20;1.40;;;6.74;100.00;95205.81;622212;222;31866;-73
2022/02/18 00:30:27;;;;;;;0.90;0.50;;;6.30;1.40;;;6.85;100.00;95209.19;648492;212;31537;-75
2022/02/18 00:35:51;;;;;;;2.95;0.77;;;6.20;1.40;;;6.82;100.00;95204.09;645487;216;32162;-75
2022/02/18 00:38:33;;;;;;;2.70;0.50;;;6.50;1.40;;;6.94;100.00;95201.23;647672;212;31617;-73
2022/02/18 00:41:15;;;;;;;1.20;0.90;;;6.50;1.40;;;6.89;100.00;95199.91;647690;212;31783;-73
2022/02/18 00:43:56;;;;;;;0.80;0.50;;;6.40;1.40;;;6.89;100.00;95203.52;645492;216;31539;-72
2022/02/18 00:46:38;;;;;;;3.63;0.80;;;6.50;1.40;;;6.96;100.00;95195.17;645905;216;31794;-73
2022/02/18 00:49:20;;;;;;;1.00;0.40;;;6.50;1.40;;;6.96;100.00;95194.48;645706;212;31530;-73
2022/02/18 00:52:04;;;;;;;3.80;0.50;;;6.50;1.40;;;6.88;100.00;95199.32;645028;212;32117;-72
2022/02/18 00:54:46;;;;;;;1.37;1.00;;;6.60;1.40;;;7.04;100.00;95201.06;644586;212;31535;-75
2022/02/18 00:57:31;;;;;;;1.33;0.70;;;6.60;1.40;;;6.96;100.00;95202.77;645829;213;32171;-74
2022/02/18 01:00:15;;;;;;;0.55;0.47;;;6.60;1.40;;;7.03;100.00;95191.38;647462;216;42198;-75
2022/02/18 01:02:55;;;;;;;1.13;0.50;;;6.60;1.40;;;6.98;100.00;95191.05;649963;216;31792;-73
2022/02/18 01:05:40;;;;;;;2.90;0.50;;;6.60;1.40;;;6.91;100.00;95207.10;645725;216;31712;-73
2022/02/18 01:08:21;;;;;;;1.60;1.50;;;6.50;1.40;;;6.93;100.00;95206.54;637837;212;42265;-73
2022/02/18 01:11:04;;;;;;;2.50;0.90;;;6.40;1.40;;;6.91;100.00;95209.85;619493;222;32040;-73
2022/02/18 01:13:46;;;;;;;0.60;0.40;;;6.50;1.40;;;7.10;100.00;95206.47;644641;216;31547;-75
2022/02/18 01:16:27;;;;;;;9.70;1.10;;;6.60;1.40;;;6.98;100.00;95212.94;642276;216;31654;-75
2022/02/18 01:19:09;;;;;;;5.30;0.87;;;6.50;1.40;;;6.94;100.00;95214.44;649017;212;31533;-73
2022/02/18 01:21:51;;;;;;;0.70;0.68;;;6.40;1.40;;;6.92;100.00;95209.57;648189;216;31568;-72
2022/02/18 01:24:33;;;;;;;2.00;1.20;;;6.50;1.40;;;6.84;100.00;95202.41;644509;212;32117;-72
2022/02/18 01:27:14;;;;;;;1.80;0.98;;;6.40;1.40;;;7.05;100.00;95213.40;617972;225;31913;-74
2022/02/18 01:29:59;;;;;;;8.53;1.50;;;6.70;1.40;;;7.02;100.00;95201.80;646642;216;32219;-73
2022/02/18 01:32:41;;;;;;;3.10;1.00;;;6.50;1.40;;;6.89;100.00;95211.44;648034;216;31494;-74
2022/02/18 01:35:51;;;;;;;1.70;0.60;;;6.30;1.40;;;6.92;100.00;95207.78;645492;216;33199;-75
2022/02/18 01:38:33;;;;;;;0.90;0.80;;;6.50;1.40;;;6.94;100.00;95203.12;621583;226;31885;-75
2022/02/18 01:41:14;;;;;;;1.23;0.43;;;6.50;1.40;;;7.00;100.00;95201.34;648505;216;31555;-74
2022/02/18 01:43:56;;;;;;;2.17;0.65;;;6.50;1.40;;;7.06;100.00;95205.25;643924;216;42152;-74
2022/02/18 01:46:38;;;;;;;1.80;0.90;;;6.70;1.40;;;7.17;100.00;95208.16;643983;216;32123;-74
2022/02/18 01:49:20;;;;;;;2.07;0.83;;;6.70;1.40;;;7.32;100.00;95191.59;646776;216;31665;-74
2022/02/18 01:52:01;;;;;;;2.87;0.73;;;6.90;1.40;;;7.14;100.00;95198.92;649013;212;31719;-74
2022/02/18 01:54:43;;;;;;;1.87;0.37;;;6.70;1.40;;;7.28;100.00;95182.21;646908;216;36403;-75
2022/02/18 01:57:25;;;;;;;2.23;0.67;;;6.90;1.40;;;7.26;100.00;95189.89;647720;212;31579;-73
2022/02/18 02:00:08;;;;;;;1.10;0.85;;;6.80;1.40;;;7.22;100.00;95202.55;646600;212;42680;-73
2022/02/18 02:02:52;;;;;;;3.65;0.90;;;6.80;1.40;;;7.24;100.00;95193.35;646277;216;31596;-74
2022/02/18 02:05:34;;;;;;;0.65;0.50;;;6.90;1.40;;;7.15;100.00;95190.61;645999;212;31591;-73
2022/02/18 02:10:51;;;;;;;3.35;1.10;;;7.00;1.40;;;7.34;100.00;95183.91;618423;226;33323;-74
2022/02/18 02:13:35;;;;;;;1.20;0.60;;;6.90;1.40;;;7.42;100.00;95193.30;645194;216;31503;-73
2022/02/18 02:16:17;;;;;;;1.90;0.83;;;7.00;1.40;;;7.51;100.00;95184.34;645456;216;31805;-76
2022/02/18 02:18:59;;;;;;;0.75;0.65;;;7.10;1.40;;;7.53;100.00;95189.29;648265;212;31742;-73
2022/02/18 02:21:40;;;;;;;1.00;0.60;;;7.10;1.40;;;7.60;100.00;95175.75;646908;216;31536;-74
2022/02/18 02:24:22;;;;;;;1.60;0.60;;;7.20;1.40;;;7.56;100.00;95171.93;647825;212;31538;-73
2022/02/18 02:29:38;;;;;;;1.40;0.60;;;7.00;1.40;;;7.71;100.00;95174.85;619769;226;31946;-73
2022/02/18 02:32:23;;;;;;;5.30;1.30;;;7.30;1.40;;;7.68;100.00;95162.22;649408;213;31526;-73
2022/02/18 02:35:51;;;;;;;6.10;0.82;;;7.20;1.40;;;7.56;100.00;95152.61;646503;216;31560;-73
2022/02/18 02:38:33;;;;;;;5.70;1.00;;;7.10;1.40;;;7.62;100.00;95151.33;619622;226;31864;-73
2022/02/18 02:41:14;;;;;;;3.30;0.80;;;7.20;1.40;;;7.75;100.00;95153.31;650600;212;31779;-74
2022/02/18 02:43:56;;;;;;;0.87;0.47;;;7.30;1.40;;;7.73;100.00;95157.72;615139;228;31865;-73
2022/02/18 02:46:38;;;;;;;1.20;0.40;;;7.30;1.40;;;7.69;100.00;95151.20;645310;212;31532;-73
2022/02/18 02:49:20;;;;;;;7.50;0.80;;;7.20;1.40;;;7.72;100.00;95145.28;650300;216;32876;-73
2022/02/18 02:52:01;;;;;;;1.67;0.47;;;7.20;1.40;;;7.66;100.00;95146.23;646825;216;31579;-72
2022/02/18 02:54:43;;;;;;;1.43;0.83;;;7.20;1.40;;;7.78;100.00;95144.14;648967;216;31554;-73
2022/02/18 02:57:28;;;;;;;0.90;0.70;;;7.30;1.40;;;7.83;100.00;95138.05;647505;216;31494;-73
2022/02/18 03:00:11;;;;;;;1.40;1.10;;;7.40;1.40;;;7.81;100.00;95148.05;641326;219;31472;-75
2022/02/18 03:02:52;;;;;;;4.60;1.40;;;7.40;1.40;;;7.89;100.00;95160.63;618571;226;32103;-73
2022/02/18 03:05:34;;;;;;;1.40;1.00;;;7.40;1.40;;;7.92;100.00;95144.86;647431;216;31512;-73
2022/02/18 03:08:15;;;;;;;0.50;0.40;;;7.50;1.40;;;7.91;100.00;95161.24;635327;216;31744;-73
2022/02/18 03:13:45;;;;;;;0.70;0.70;;;7.40;1.40;;;7.90;100.00;95176.80;647359;216;31516;-73
2022/02/18 03:16:28;;;;;;;0.90;0.50;;;7.40;1.40;;;7.88;100.00;95181.86;643073;215;31496;-73
2022/02/18 03:19:09;;;;;;;1.80;0.90;;;7.30;1.40;;;7.80;100.00;95187.83;641238;215;31371;-74
2022/02/18 03:21:51;;;;;;;2.20;1.30;;;7.30;1.40;;;7.92;100.00;95200.14;647275;216;31510;-73
2022/02/18 03:24:33;;;;;;;1.30;0.90;;;7.50;1.40;;;7.93;100.00;95209.79;646242;216;31509;-73
2022/02/18 03:27:14;;;;;;;1.20;0.30;;;7.50;1.40;;;7.88;100.00;95198.36;647584;216;31533;-74
2022/02/18 03:29:56;;;;;;;2.60;0.85;;;7.40;1.40;;;7.88;100.00;95181.42;646273;212;31682;-74
2022/02/18 03:32:38;;;;;;;0.40;0.40;;;7.40;1.40;;;7.86;100.00;95164.94;646483;216;31507;-73
2022/02/18 03:35:51;;;;;;;0.50;0.50;;;7.30;1.40;;;7.98;100.00;95171.98;649127;216;31644;-73
2022/02/18 03:38:32;;;;;;;1.90;1.00;;;7.60;1.40;;;7.89;100.00;95183.73;646712;212;31498;-73
2022/02/18 03:41:14;;;;;;;1.00;0.53;;;7.40;1.40;;;7.80;100.00;95157.94;646366;212;32077;-73
2022/02/18 03:43:56;;;;;;;1.30;0.50;;;7.40;1.40;;;7.87;100.00;95160.55;647427;216;31879;-73
2022/02/18 03:46:37;;;;;;;1.80;1.10;;;7.40;1.40;;;7.80;100.00;95158.26;645780;212;31555;-73
2022/02/18 03:49:19;;;;;;;0.87;0.67;;;7.30;1.40;;;7.65;100.00;95153.79;646085;212;31527;-73
2022/02/18 03:52:06;;;;;;;5.30;1.30;;;7.20;1.40;;;7.63;100.00;95159.81;650084;216;31655;-73
2022/02/18 03:54:46;;;;;;;0.65;0.47;;;7.20;1.40;;;7.59;100.00;95173.81;647046;216;31645;-73
2022/02/18 03:57:29;;;;;;;1.47;1.17;;;7.20;1.40;;;7.71;100.00;95185.38;646980;212;31945;-74
2022/02/18 04:00:11;;;;;;;2.60;0.50;;;7.30;1.40;;;7.73;100.00;95198.24;647964;216;31509;-75
2022/02/18 04:02:53;;;;;;;1.63;1.10;;;7.30;1.40;;;7.75;100.00;95190.92;648558;212;31549;-73
2022/02/18 04:05:35;;;;;;;0.80;0.50;;;7.30;1.40;;;7.79;100.00;95188.66;647799;216;31528;-73
2022/02/18 04:08:17;;;;;;;0.80;0.80;;;7.30;1.40;;;7.74;100.00;95166.50;635359;212;31666;-76
2022/02/18 04:10:58;;;;;;;1.10;0.50;;;7.20;1.40;;;7.70;100.00;95168.39;647204;212;31645;-73
2022/02/18 04:13:41;;;;;;;4.40;1.23;;;7.20;1.40;;;7.85;100.00;95159.88;646778;216;31513;-72
2022/02/18 04:16:23;;;;;;;2.00;1.20;;;7.40;1.40;;;7.81;100.00;95150.80;648241;216;31553;-75
2022/02/18 04:19:04;;;;;;;1.23;0.60;;;7.30;1.40;;;7.82;100.00;95145.52;619078;225;31871;-73
2022/02/18 04:21:45;;;;;;;1.60;0.40;;;7.40;1.40;;;7.76;100.00;95140.78;645088;216;31890;-73
2022/02/18 04:24:27;;;;;;;3.00;0.80;;;7.30;1.40;;;7.72;100.00;95145.17;649340;212;31461;-73
2022/02/18 04:27:09;;;;;;;0.70;0.50;;;7.10;1.40;;;7.67;100.00;95145.45;647175;216;31508;-74
2022/02/18 04:29:50;;;;;;;6.60;1.70;;;7.10;1.40;;;7.64;100.00;95139.52;645368;216;31744;-73
2022/02/18 04:32:32;;;;;;;0.90;0.60;;;7.10;1.40;;;7.62;100.00;95131.00;645825;212;31612;-75
2022/02/18 04:38:26;;;;;;;1.70;0.80;;;7.20;1.40;;;7.70;100.00;95142.34;647735;216;31529;-73
2022/02/18 04:41:11;;;;;;;0.90;0.90;;;7.20;1.40;;;7.61;100.00;95143.89;648950;212;31526;-72
2022/02/18 04:43:52;;;;;;;1.60;0.90;;;7.20;1.40;;;7.74;100.00;95139.89;644499;212;31520;-74
2022/02/18 04:46:34;;;;;;;4.30;0.90;;;7.30;1.40;;;7.71;100.00;95122.29;645984;216;31716;-73
2022/02/18 04:49:16;;;;;;;0.60;0.40;;;7.30;1.40;;;7.72;100.00;95125.67;644832;212;32477;-73
2022/02/18 04:51:58;;;;;;;0.90;0.73;;;7.20;1.40;;;7.69;100.00;95127.25;645945;212;31806;-73
2022/02/18 04:54:42;;;;;;;1.10;0.80;;;7.20;1.40;;;7.43;100.00;95127.91;648871;212;31498;-73
2022/02/18 04:57:24;;;;;;;0.40;0.20;;;6.90;1.40;;;7.39;100.00;95121.92;646672;212;31568;-75
2022/02/18 05:00:07;;;;;;;1.40;1.30;;;6.80;1.40;;;7.32;100.00;95124.84;645268;216;32143;-73
2022/02/18 05:02:49;;;;;;;2.30;0.60;;;6.90;1.40;;;7.17;100.00;95118.34;648276;216;32033;-75
2022/02/18 05:05:31;;;;;;;1.90;0.60;;;6.70;1.40;;;7.32;100.00;95115.03;646924;216;31526;-73
2022/02/18 05:08:13;;;;;;;1.50;0.70;;;6.80;1.40;;;7.26;100.00;95114.02;635974;212;31683;-73
2022/02/18 05:10:57;;;;;;;2.30;0.90;;;6.80;1.40;;;7.23;100.00;95117.61;646622;216;31686;-74
2022/02/18 05:13:39;;;;;;;0.90;0.60;;;6.70;1.40;;;7.21;100.00;95110.52;648312;216;32064;-73
2022/02/18 05:18:55;;;;;;;2.33;0.93;;;6.60;1.40;;;7.01;100.00;95103.55;645586;216;31490;-75
2022/02/18 05:21:37;;;;;;;1.40;1.10;;;6.40;1.40;;;6.98;100.00;95094.21;647846;212;31550;-76
2022/02/18 05:24:19;;;;;;;1.03;0.93;;;6.30;1.40;;;6.95;100.00;95093.13;646995;212;31778;-73
2022/02/18 05:27:01;;;;;;;1.40;0.60;;;6.30;1.40;;;6.84;100.00;95093.23;648765;216;31534;-74
2022/02/18 05:29:46;;;;;;;1.10;0.40;;;6.20;1.40;;;6.66;100.00;95099.42;648857;216;31523;-73
2022/02/18 05:32:27;;;;;;;3.10;1.00;;;6.00;1.40;;;6.57;100.00;95094.47;641151;214;31600;-73
2022/02/18 05:35:51;;;;;;;3.30;0.60;;;6.00;1.40;;;6.73;100.00;95087.88;646505;212;31848;-72
2022/02/18 05:38:33;;;;;;;0.40;0.30;;;6.20;1.40;;;6.70;100.00;95082.16;646668;212;31544;-73
2022/02/18 05:41:14;;;;;;;3.80;0.60;;;6.20;1.40;;;6.73;100.00;95085.08;649913;216;31999;-73
2022/02/18 05:43:56;;;;;;;0.87;0.67;;;6.20;1.40;;;6.76;100.00;95077.83;619743;226;32074;-75
2022/02/18 05:46:38;;;;;;;0.62;0.62;;;6.20;1.40;;;6.63;100.00;95067.36;647680;216;42486;-75
2022/02/18 05:49:19;;;;;;;1.27;0.60;;;6.10;1.40;;;6.53;100.00;95070.17;649710;216;31509;-73
2022/02/18 05:52:01;;;;;;;3.72;1.05;;;6.00;1.40;;;6.43;100.00;95068.70;647693;216;32161;-73
2022/02/18 05:54:43;;;;;;;0.60;0.60;;;5.80;1.40;;;6.37;100.00;95065.65;616991;222;31906;-74
2022/02/18 05:57:24;;;;;;;2.80;0.40;;;6.00;1.40;;;6.50;100.00;95057.84;646253;216;31540;-74
2022/02/18 06:00:08;;;;;;;0.60;0.50;;;6.00;1.40;;;6.59;100.00;95056.25;645368;216;31567;-73
2022/02/18 06:02:49;;;;;;;4.50;0.60;;;6.20;1.40;;;6.57;100.00;95051.27;645994;216;32571;-74
2022/02/18 06:05:31;;;;;;;3.10;1.10;;;6.10;1.40;;;6.58;100.00;95042.86;647820;212;31516;-74
2022/02/18 06:08:16;;;;;;;0.70;0.70;;;6.20;1.40;;;6.71;100.00;95045.30;634987;216;42978;-74
2022/02/18 06:10:58;;;;;;;1.10;0.70;;;6.30;1.40;;;6.77;100.00;95052.16;646360;212;32268;-75
2022/02/18 06:13:39;;;;;;;2.10;0.35;;;6.40;1.40;;;6.82;100.00;95053.50;649681;216;31510;-74
2022/02/18 06:16:24;;;;;;;1.00;1.00;;;6.40;1.40;;;6.91;100.00;95050.86;647601;216;32091;-74
2022/02/18 06:19:07;;;;;;;1.33;0.80;;;6.50;1.40;;;6.95;100.00;95055.44;618185;226;32378;-74
2022/02/18 06:21:47;;;;;;;1.00;0.60;;;6.50;1.40;;;7.10;100.00;95060.53;649049;216;31519;-74
2022/02/18 06:24:29;;;;;;;4.10;0.90;;;6.60;1.40;;;7.14;100.00;95062.84;647273;216;31522;-75
2022/02/18 06:27:11;;;;;;;0.93;0.50;;;6.60;1.40;;;7.20;100.00;95059.80;631436;222;31737;-73
2022/02/18 06:29:55;;;;;;;0.60;0.40;;;6.70;1.40;;;7.19;100.00;95056.52;647542;216;32130;-74
2022/02/18 06:32:34;;;;;;;1.50;1.00;;;6.60;1.40;;;7.21;100.00;95056.88;646879;212;31554;-76
2022/02/18 06:35:51;;;;;;;1.85;0.85;;;6.50;1.40;;;7.19;100.00;95048.00;646428;212;31919;-74
2022/02/18 06:38:35;;;;;;;0.70;0.40;;;6.50;1.40;;;7.23;100.00;95047.34;618199;226;32129;-75
2022/02/18 06:41:17;;;;;;;0.50;0.30;;;6.50;1.40;;;7.34;100.00;95037.39;646261;216;31582;-75
2022/02/18 06:43:59;;;;;;;1.80;0.90;;;6.70;1.40;;;7.35;100.00;95029.23;647047;216;31506;-74
2022/02/18 06:46:44;;;;;;;4.30;0.70;;;6.60;1.40;;;7.24;100.00;95041.67;617912;226;31982;-75
2022/02/18 06:49:26;;;;;;;2.10;0.40;;;6.50;1.40;;;7.16;100.00;95029.13;647103;216;31517;-76
2022/02/18 06:52:10;;;;;;;3.50;1.20;;;6.40;1.40;;;7.11;100.00;95023.59;647326;212;32100;-75
2022/02/18 06:54:52;;;;;;;3.30;0.60;;;6.30;1.40;;;7.08;100.00;95021.17;618477;222;32221;-74
2022/02/18 06:57:42;;;;;;;2.10;0.50;;;6.30;1.40;;;7.12;100.00;95023.75;648380;216;31507;-74
2022/02/18 07:00:26;;;;;;;0.80;0.60;;;6.30;1.40;;;7.32;100.00;95023.46;645809;216;31502;-75
2022/02/18 07:03:07;;;;;;;3.10;1.13;;;6.50;1.40;;;7.50;100.00;95019.56;619685;222;32416;-74
2022/02/18 07:05:48;;;;;;;3.90;1.03;;;6.60;1.40;;;7.51;100.00;95018.16;642335;219;34783;-74
2022/02/18 07:08:30;;;;;;;0.70;0.63;;;6.80;1.40;;;7.65;100.00;95020.41;632061;216;31723;-75
2022/02/18 07:11:15;;;;;;;1.20;0.90;;;6.90;1.40;;;7.71;100.00;95019.01;645566;216;31529;-74
2022/02/18 07:13:56;;;;;;;1.80;0.60;;;7.00;1.40;;;7.79;100.00;95026.97;647308;216;32031;-74
2022/02/18 07:16:41;;;;;;;0.88;0.70;;;7.00;1.40;;;7.80;100.00;95020.53;647672;216;31627;-73
2022/02/18 07:19:20;;;;;;;0.90;0.70;;;7.10;1.40;;;7.84;100.00;95010.55;618794;226;32199;-73
2022/02/18 07:22:01;;;;;;;2.60;0.50;;;7.20;1.40;;;7.87;100.00;95008.38;647058;212;31556;-74
2022/02/18 07:27:18;;;;;;;3.50;1.20;;;7.20;1.40;;;8.12;100.00;95006.27;646717;212;31618;-74
2022/02/18 07:30:02;;;;;;;0.60;0.40;;;7.30;1.40;;;8.23;100.00;95001.59;619699;222;32034;-74
2022/02/18 07:32:44;;;;;;;1.10;0.50;;;7.40;1.40;;;8.36;100.00;94995.91;618770;222;31821;-74
2022/02/18 07:35:52;;;;;;;2.28;0.90;;;7.40;1.40;;;8.35;100.00;94990.84;647745;216;31523;-74
2022/02/18 07:38:36;;;;;;;1.00;0.60;;;7.40;1.40;;;8.36;100.00;94991.38;647802;215;31605;-74
2022/02/18 07:41:17;;;;;;;0.80;0.50;;;7.50;1.40;;;8.47;100.00;94984.80;646945;216;31516;-74
2022/02/18 07:43:59;;;;;;;3.60;0.50;;;7.50;1.40;;;8.48;100.00;94987.14;646211;216;31493;-74
2022/02/18 07:46:41;;;;;;;0.65;0.40;;;7.50;1.40;;;8.52;100.00;94986.80;618636;226;32752;-73
2022/02/18 07:49:25;;;;;;;1.07;0.60;;;7.60;1.40;;;8.53;100.00;94979.27;646052;212;31573;-75
2022/02/18 07:52:07;;;;;;;3.00;1.10;;;7.70;1.40;;;8.79;100.00;94974.47;646387;216;32071;-74
2022/02/18 07:54:54;;;;;;;1.30;1.20;;;7.70;1.40;;;8.90;100.00;94964.42;648153;212;31566;-75
2022/02/18 07:57:34;;;;;;;2.60;0.70;;;7.80;1.40;;;8.89;100.00;94959.80;646410;215;31595;-75
2022/02/18 08:00:16;;;;;;;1.60;0.70;;;7.80;1.40;;;8.86;100.00;94948.48;645411;212;32128;-73
2022/02/18 08:02:57;;;;;;;2.90;1.00;;;7.90;1.40;;;8.89;100.00;94943.75;645953;212;31925;-74
2022/02/18 08:05:46;;;;;;;0.60;0.47;;;7.90;1.40;;;9.04;100.00;94938.55;646919;216;31549;-79
2022/02/18 08:08:36;;;;;;;0.90;0.60;;;8.00;1.40;;;9.10;100.00;94933.44;646323;216;32383;-74
2022/02/18 08:11:15;;;;;;;1.00;1.00;;;8.00;1.40;;;9.15;100.00;94926.42;645220;212;32265;-74
2022/02/18 08:13:58;;;;;;;0.70;0.60;;;8.10;1.40;;;9.21;100.00;94920.54;646363;212;31769;-74
2022/02/18 08:17:12;;;;;;;2.20;1.00;;;8.10;1.40;;;9.24;100.00;94915.80;645108;216;31871;-74
2022/02/18 08:19:58;;;;;;;0.60;0.40;;;8.20;1.40;;;9.15;100.00;94913.28;646306;212;42925;-75
2022/02/18 08:22:35;;;;;;;1.10;0.57;;;8.20;1.40;;;9.13;100.00;94910.90;648337;216;31635;-75
2022/02/18 08:25:20;;;;;;;1.40;0.50;;;8.30;1.40;;;9.25;100.00;94906.09;647149;216;31615;-74
2022/02/18 08:28:04;;;;;;;1.70;0.70;;;8.30;1.40;;;9.20;100.00;94900.92;620685;226;32557;-78
2022/02/18 08:30:51;;;;;;;0.50;0.30;;;8.30;1.40;;;9.19;100.00;94897.33;646034;213;31740;-73
2022/02/18 08:35:54;;;;;;;1.60;0.60;;;8.40;1.40;;;9.22;100.00;94880.09;645866;216;31498;-74
2022/02/18 08:41:09;;;;;;;1.00;0.50;;;8.50;1.40;;;9.24;100.00;94876.91;646553;212;31512;-74
2022/02/18 08:43:58;;;;;;;1.80;0.60;;;8.50;1.40;;;9.22;100.00;94867.67;646236;216;31638;-79
2022/02/18 08:49:18;;;;;;;0.50;0.40;;;8.60;1.40;;;9.38;100.00;94867.48;633335;222;33125;-74
2022/02/18 08:52:00;;;;;;;1.90;0.35;;;8.70;1.40;;;9.52;100.00;94860.58;647713;212;31501;-74
2022/02/18 08:54:41;;;;;;;1.00;0.70;;;8.70;1.40;;;9.56;100.00;94846.19;622580;226;31823;-74
2022/02/18 08:57:23;;;;;;;0.50;0.40;;;8.70;1.40;;;9.47;100.00;94839.55;647225;216;31712;-73
2022/02/18 09:00:07;;;;;;;2.10;0.50;;;8.80;1.40;;;9.41;100.00;94840.22;649240;216;31865;-75
2022/02/18 09:02:49;;;;;;;3.03;0.88;;;8.80;1.40;;;9.45;100.00;94836.25;646055;212;31561;-74
2022/02/18 09:05:31;;;;;;;1.80;0.50;;;8.70;1.40;;;9.57;100.00;94839.39;647238;212;42400;-75
2022/02/18 09:08:13;;;;;;;0.70;0.70;;;8.80;1.40;;;9.78;100.00;94837.27;636296;216;31745;-74
2022/02/18 09:13:28;;;;;;;2.90;0.90;;;9.00;1.40;;;10.02;100.00;94825.27;647080;216;31472;-76
2022/02/18 09:16:10;;;;;;;1.90;0.50;;;9.20;1.40;;;9.99;100.00;94826.71;645402;216;31979;-74
2022/02/18 09:18:52;;;;;;;1.70;0.50;;;9.30;1.40;;;10.09;100.00;94818.59;646994;216;31517;-74
2022/02/18 09:21:39;;;;;;;2.80;1.00;;;9.40;1.40;;;10.22;100.00;94811.22;642545;216;31568;-79
2022/02/18 09:24:22;;;;;;;2.60;1.10;;;9.50;1.40;;;10.41;100.00;94802.87;643333;214;31668;-78
2022/02/18 09:27:09;;;;;;;0.97;0.50;;;9.70;1.40;;;10.67;100.00;94800.61;646072;216;31716;-74
2022/02/18 09:29:50;;;;;;;1.77;1.23;;;9.80;1.40;;;10.99;100.00;94784.20;646847;212;31523;-74
2022/02/18 09:32:35;;;;;;;2.70;1.20;;;9.80;1.40;;;10.82;100.00;94782.54;645686;216;32320;-74
2022/02/18 09:35:51;;;;;;;3.90;1.15;;;9.70;1.40;;;11.16;100.00;94781.13;646397;216;31496;-74
2022/02/18 09:38:33;;;;;;;0.60;0.40;;;9.90;1.40;;;11.04;100.00;94775.47;647062;216;31531;-74
2022/02/18 09:41:18;;;;;;;2.60;0.50;;;9.90;1.40;;;11.08;100.00;94772.75;646230;216;31536;-74
2022/02/18 09:43:59;;;;;;;1.30;0.60;;;10.00;1.40;;;11.13;100.00;94763.59;646288;216;31543;-74
2022/02/18 09:46:41;;;;;;;3.60;0.60;;;10.10;1.40;;;11.36;100.00;94761.70;647526;212;31537;-74
2022/02/18 09:49:23;;;;;;;0.70;0.45;;;10.20;1.40;;;11.38;100.00;94755.91;646052;216;31496;-74
2022/02/18 09:52:05;;;;;;;0.77;0.40;;;10.30;1.40;;;11.52;100.00;94750.56;646488;216;33629;-74
2022/02/18 09:54:46;;;;;;;1.10;0.40;;;10.30;1.40;;;11.39;100.00;94741.44;619055;226;32048;-74
2022/02/18 09:57:28;;;;;;;1.20;0.70;;;10.30;1.40;;;11.49;100.00;94730.92;646796;212;42444;-76
2022/02/18 10:00:12;;;;;;;1.40;0.70;;;10.30;1.40;;;11.58;100.00;94728.50;647429;216;31624;-75
2022/02/18 10:02:56;;;;;;;0.50;0.30;;;10.40;1.40;;;11.58;99.65;94727.69;645642;216;31493;-74
2022/02/18 10:05:38;;;;;;;0.60;0.50;;;10.50;1.40;;;11.52;97.75;94725.81;647750;216;31480;-74
2022/02/18 10:08:22;;;;;;;1.63;0.50;;;10.50;1.40;;;11.73;98.23;94718.62;635123;216;34712;-74
2022/02/18 10:11:06;;;;;;;0.43;0.30;;;10.60;1.40;;;11.73;95.97;94710.11;646931;212;32550;-74
2022/02/18 10:13:48;;;;;;;0.50;0.50;;;10.60;1.40;;;11.62;94.71;94702.50;646956;216;32276;-74
2022/02/18 10:19:10;;;;;;;2.70;0.30;;;10.60;1.40;;;11.72;91.61;94700.08;646108;216;31523;-75
2022/02/18 10:21:50;;;;;;;1.23;0.40;;;10.70;1.40;;;11.72;91.92;94694.05;647585;216;34462;-73
2022/02/18 10:24:37;;;;;;;1.27;0.52;;;10.70;1.40;;;11.71;91.31;94692.61;646417;216;32750;-74
2022/02/18 10:27:22;;;;;;;1.00;0.70;;;10.70;1.40;;;11.85;89.52;94677.72;646508;216;31608;-75
2022/02/18 10:30:05;;;;;;;0.52;0.50;;;10.90;1.40;;;12.19;88.47;94680.11;645434;216;31575;-73
2022/02/18 10:32:46;;;;;;;1.10;0.35;;;11.20;1.40;;;12.80;86.82;94674.95;646491;216;32756;-74
2022/02/18 10:35:51;;;;;;;1.35;0.40;;;11.50;1.40;;;12.97;84.53;94669.77;646110;216;42460;-74
2022/02/18 10:38:34;;;;;;;0.85;0.60;;;11.40;1.40;;;12.84;84.85;94660.53;647158;216;31535;-74
2022/02/18 10:41:19;;;;;;;2.60;0.60;;;11.40;1.40;;;12.80;84.57;94653.73;646432;216;42132;-74
2022/02/18 10:44:02;;;;;;;0.75;0.50;;;11.50;1.40;;;12.79;85.51;94647.04;647470;216;42116;-74
2022/02/18 10:46:44;;;;;;;0.80;0.40;;;11.40;1.40;;;13.06;84.95;94646.94;646328;216;42114;-74
2022/02/18 10:49:26;;;;;;;1.20;0.75;;;11.60;1.40;;;13.07;84.40;94643.27;645671;212;42110;-74
2022/02/18 10:52:12;;;;;;;2.20;0.80;;;11.70;1.40;;;12.97;83.90;94632.91;646941;216;32058;-74
2022/02/18 10:54:54;;;;;;;2.70;0.50;;;11.60;1.40;;;12.74;84.89;94625.41;646882;212;42244;-74
2022/02/18 10:57:36;;;;;;;0.65;0.55;;;11.50;1.40;;;12.80;87.68;94621.02;618895;222;32526;-74
2022/02/18 11:00:18;;;;;;;0.75;0.40;;;11.60;1.40;;;12.95;88.17;94612.28;646271;216;31518;-74
2022/02/18 11:02:59;;;;;;;1.40;0.70;;;11.60;1.40;;;12.80;87.21;94609.47;647034;216;31711;-74
2022/02/18 11:05:41;;;;;;;1.30;0.50;;;11.50;1.40;;;12.83;87.77;94599.45;646155;212;32108;-75
2022/02/18 11:08:30;;;;;;;0.70;0.50;;;11.60;1.40;;;12.94;88.83;94591.01;635172;216;31642;-74
2022/02/18 11:11:12;;;;;;;0.52;0.30;;;11.60;1.40;;;12.81;88.88;94583.69;646862;212;32169;-74
2022/02/18 11:15:53;;;;;;;1.70;0.40;;;11.70;1.40;;;13.17;90.04;94575.30;647647;216;31512;-74
2022/02/18 11:18:35;;;;;;;1.83;0.40;;;11.80;1.40;;;13.27;89.52;94573.80;646339;216;31480;-74
2022/02/18 11:21:17;;;;;;;0.60;0.50;;;11.80;1.40;;;13.35;88.25;94572.63;645966;212;31485;-74
2022/02/18 11:23:58;;;;;;;1.00;0.70;;;11.90;1.40;;;13.33;87.92;94568.30;619651;222;31801;-75
2022/02/18 11:26:40;;;;;;;1.70;1.10;;;11.90;1.40;;;13.06;87.66;94562.20;646292;212;31694;-74
2022/02/18 11:29:21;;;;;;;1.40;0.77;;;11.80;1.40;;;12.93;91.29;94556.31;619311;222;31859;-74
2022/02/18 11:32:08;;;;;;;1.27;0.60;;;11.80;1.40;;;12.91;88.89;94556.45;620390;226;31916;-74
2022/02/18 11:38:46;;;;;;;1.10;0.60;;;11.60;1.40;;;12.49;87.48;94544.24;645676;216;31513;-75
2022/02/18 11:41:34;;;;;;;3.23;0.93;;;11.50;1.40;;;12.46;89.00;94543.16;646343;216;31631;-73
2022/02/18 11:44:16;;;;;;;1.15;1.00;;;11.50;1.40;;;12.42;88.92;94544.35;647884;212;31872;-72
2022/02/18 11:47:10;;;;;;;1.77;1.30;;;11.50;1.40;;;12.79;91.23;94532.59;647368;212;31877;-75
2022/02/18 11:49:52;;;;;;;2.30;1.20;;;11.50;1.40;;;12.92;89.30;94526.84;646755;216;31515;-74
2022/02/18 11:52:34;;;;;;;1.30;0.60;;;11.50;1.40;;;13.01;89.43;94522.37;645708;212;34761;-73
2022/02/18 11:55:28;;;;;;;1.50;1.10;;;11.70;1.40;;;12.89;90.35;94506.30;646280;212;31550;-75
2022/02/18 11:58:13;;;;;;;2.30;1.10;;;11.70;1.40;;;13.01;89.48;94499.40;646684;216;31742;-75
2022/02/18 12:00:55;;;;;;;3.00;2.20;;;11.90;1.40;;;12.89;88.92;94502.70;648058;216;31577;-74
2022/02/18 12:03:36;;;;;;;2.08;1.42;;;11.90;1.40;;;13.19;87.73;94490.80;646957;216;31612;-74
2022/02/18 12:06:23;;;;;;;1.20;1.08;;;12.10;1.40;;;13.62;85.63;94493.11;615220;226;32072;-75
2022/02/18 12:09:02;;;;;;;1.00;0.60;;;12.40;1.40;;;13.96;83.85;94484.01;619179;222;32016;-78
2022/02/18 12:11:49;;;;;;;0.70;0.60;;;12.50;1.40;;;13.95;81.95;94476.28;646374;216;31513;-74
2022/02/18 12:14:31;;;;;;;0.80;0.50;;;12.50;1.40;;;14.08;82.03;94469.56;646142;216;31757;-74
2022/02/18 12:17:13;;;;;;;1.10;0.60;;;12.50;1.40;;;14.29;80.80;94466.65;616471;226;31912;-74